Last 7 Days

Gordon Valley 3

Hourly Data | America/Los_Angeles
as of 4/23/24 8:47 PM PDT
Date & Time Temp (°F) RH (%) Dew Pt (°F) Wind Spd (mph) Wind Dir (°) Wind Gust (mph) Wind Gst Dir (°) Latest Rain (In) Daily Rain (In) Daily Min Temp (°F) Daily Max Temp (°F)
4/23/24 - 2000 58.1 62 45.2 4.9 WSW | 249 12.5 WSW | 253 0.00 0.00 48.7 66.1
4/23/24 - 1900 59.3 60 45.6 7.8 WSW | 239 14.8 SW | 222 0.00 0.00 48.7 66.1
4/23/24 - 1800 60.6 59 46.2 9.4 WSW | 238 19.5 WSW | 238 0.00 0.00 48.7 66.1
4/23/24 - 1700 62.7 54 45.8 10.8 WSW | 245 18.8 WSW | 243 0.00 0.00 48.7 66.1
4/23/24 - 1600 64.4 52 46.5 10.3 WSW | 244 17.8 W | 260 0.00 0.00 48.7 66.1
4/23/24 - 1500 65.2 50 46.2 11.5 SW | 231 19.5 SSW | 196 0.00 0.00 48.7 66.1
4/23/24 - 1400 65.0 50 46.0 12.3 SW | 228 19.8 SW | 226 0.00 0.00 48.7 65.7
4/23/24 - 1300 63.7 53 46.2 11.9 SW | 227 19.5 SW | 227 0.00 0.00 48.7 65.5
4/23/24 - 1200 61.8 57 46.6 10.0 WSW | 238 19.8 SW | 222 0.00 0.00 48.7 63.2
4/23/24 - 1100 60.0 61 46.4 9.8 SW | 236 17.8 SW | 218 0.00 0.00 48.7 62.5
4/23/24 - 1000 57.7 65 46.1 7.6 WSW | 250 14.5 SW | 224 0.00 0.00 48.7 58.5
4/23/24 - 0900 55.8 72 47.0 5.9 WSW | 258 14.2 WSW | 251 0.00 0.00 48.7 56.5
4/23/24 - 0800 55.3 71 46.2 5.0 W | 269 12.5 WSW | 244 0.00 0.00 48.7 55.5
4/23/24 - 0700 54.7 72 46.0 5.7 W | 269 17.2 SW | 215 0.00 0.00 48.7 55.0
4/23/24 - 0600 54.4 73 46.0 4.9 W | 276 13.2 NW | 311 0.00 0.00 48.7 54.6
4/23/24 - 0500 53.8 75 46.2 5.2 WNW | 290 15.8 WSW | 254 0.00 0.00 48.7 54.3
4/23/24 - 0400 49.8 88 46.2 2.1 W | 266 17.2 W | 262 0.00 0.00 48.7 53.7
4/23/24 - 0300 50.4 85 46.0 0.7 NE | 48 3.8 ENE | 73 0.00 0.00 49.5 52.0
4/23/24 - 0200 51.0 84 46.4 0.9 SW | 230 4.1 WSW | 254 0.00 0.00 49.9 51.9
4/23/24 - 0100 52.8 80 46.9 1.3 SW | 226 4.8 WSW | 238 0.00 0.00 51.5 83.9
4/23/24 - 0000 54.1 77 47.3 2.6 SW | 234 5.4 WSW | 246 0.00 0.00 53.6 83.9
4/22/24 - 2300 55.7 76 48.2 7.1 SW | 236 17.5 WSW | 238 0.00 0.00 53.6 83.9
4/22/24 - 2200 57.4 76 50.0 9.5 SW | 228 17.8 SW | 224 0.00 0.00 53.6 83.9
4/22/24 - 2100 59.6 75 51.5 6.8 SW | 218 14.5 WSW | 243 0.00 0.00 53.6 83.9
4/22/24 - 2000 63.0 68 52.5 4.8 SSW | 196 10.1 SW | 214 0.00 0.00 53.6 83.9
4/22/24 - 1900 69.1 58 53.6 7.3 SW | 223 14.2 SW | 216 0.00 0.00 53.6 83.9
4/22/24 - 1800 77.0 46 54.6 4.7 WSW | 238 10.8 SW | 217 0.00 0.00 53.6 83.9
4/22/24 - 1700 78.4 41 52.9 8.0 W | 260 14.2 W | 270 0.00 0.00 53.6 83.9
4/22/24 - 1600 82.7 31 48.9 8.8 SW | 232 15.2 SW | 234 0.00 0.00 53.6 83.9
4/22/24 - 1500 81.7 44 57.6 6.9 S | 184 12.5 SSE | 153 0.00 0.00 53.6 83.1
4/22/24 - 1400 81.1 43 56.7 5.5 S | 189 10.5 S | 186 0.00 0.00 53.6 82.3
4/22/24 - 1300 80.2 43 55.6 4.3 S | 189 9.8 SSW | 198 0.00 0.00 53.6 81.4
4/22/24 - 1200 78.7 45 55.5 3.8 S | 183 8.1 SSE | 161 0.00 0.00 53.6 80.3
4/22/24 - 1100 76.1 49 55.3 3.3 S | 172 6.8 SSE | 153 0.00 0.00 53.6 77.8
4/22/24 - 1000 73.9 53 55.8 1.8 S | 178 5.8 SE | 142 0.00 0.00 53.6 75.9
4/22/24 - 0900 68.7 64 55.8 0.3 S | 176 3.1 SSW | 210 0.00 0.00 53.6 73.0
4/22/24 - 0800 59.2 82 53.6 1.0 ENE | 77 3.4 E | 79 0.00 0.00 53.6 63.4
4/22/24 - 0700 55.3 85 51.0 0.3 ENE | 60 3.4 ENE | 70 0.00 0.00 53.6 61.2
4/22/24 - 0600 60.0 77 53.0 3.2 ENE | 63 8.1 NE | 41 0.00 0.00 54.7 61.2
4/22/24 - 0500 58.6 82 53.0 3.3 NE | 51 9.1 NNE | 32 0.00 0.00 54.7 60.0
4/22/24 - 0400 55.9 88 52.4 1.7 ENE | 61 5.4 NE | 42 0.00 0.00 54.7 58.2
4/22/24 - 0300 56.4 87 52.6 2.4 ENE | 65 4.4 NE | 47 0.00 0.00 54.7 58.2
4/22/24 - 0200 57.2 87 53.3 2.4 ENE | 58 4.4 ENE | 71 0.00 0.00 56.1 58.2
4/22/24 - 0100 58.4 85 54.0 2.1 NE | 49 4.8 ENE | 62 0.00 0.00 46.8 85.5
4/22/24 - 0000 60.2 82 54.6 2.3 NE | 49 5.1 NNE | 32 0.00 0.00 46.8 85.5
4/21/24 - 2300 62.6 77 55.4 2.8 NNE | 33 5.4 NE | 38 0.00 0.00 46.8 85.5
4/21/24 - 2200 64.7 74 56.3 2.7 NNE | 21 5.8 NNE | 17 0.00 0.00 46.8 85.5
4/21/24 - 2100 67.4 71 57.6 2.9 NNE | 23 7.4 N | 351 0.00 0.00 46.8 85.5
4/21/24 - 2000 73.4 57 56.8 1.6 E | 86 5.1 SE | 144 0.00 0.00 46.8 85.5
4/21/24 - 1900 81.7 39 54.5 4.0 S | 187 7.1 SSW | 208 0.00 0.00 46.8 85.5
4/21/24 - 1800 84.2 38 56.2 4.2 SSW | 204 7.1 SW | 214 0.00 0.00 46.8 85.5
4/21/24 - 1700 83.4 41 57.1 4.9 S | 181 8.4 S | 183 0.00 0.00 46.8 85.5
4/21/24 - 1600 83.6 37 54.8 3.3 S | 174 8.1 SSE | 156 0.00 0.00 46.8 85.5
4/21/24 - 1500 82.2 39 54.7 3.7 S | 176 9.1 SW | 222 0.00 0.00 46.8 83.6
4/21/24 - 1400 80.4 41 54.8 3.8 S | 190 9.1 SSW | 200 0.00 0.00 46.8 82.2
4/21/24 - 1300 78.0 43 53.9 4.0 S | 190 8.4 SW | 214 0.00 0.00 46.8 79.4
4/21/24 - 1200 75.6 46 53.1 3.2 S | 178 8.8 SSE | 166 0.00 0.00 46.8 77.3
4/21/24 - 1100 72.1 50 52.2 3.5 S | 176 7.4 SSW | 212 0.00 0.00 46.8 74.5
4/21/24 - 1000 69.0 47 48.0 2.7 S | 176 7.8 S | 189 0.00 0.00 46.8 70.8
4/21/24 - 0900 64.8 52 46.8 0.6 S | 176 4.1 S | 183 0.00 0.00 46.8 67.0
4/21/24 - 0800 55.6 71 46.2 0.0 N | 0 0.0 ENE | 71 0.00 0.00 46.8 61.7
4/21/24 - 0700 47.5 83 42.4 0.3 NE | 40 2.1 NNW | 336 0.00 0.00 46.8 58.8
4/21/24 - 0600 48.0 81 42.4 0.7 NNW | 346 3.1 NNE | 17 0.00 0.00 47.6 58.8
4/21/24 - 0500 48.2 81 42.7 0.6 ESE | 105 3.4 NW | 312 0.00 0.00 47.8 58.8
4/21/24 - 0400 50.0 75 42.4 0.7 ESE | 106 4.1 E | 84 0.00 0.00 48.6 58.8
4/21/24 - 0300 54.4 59 40.3 1.4 E | 89 5.8 NNE | 23 0.00 0.00 51.6 58.8
4/21/24 - 0200 56.9 51 38.8 1.5 NE | 40 7.1 N | 9 0.00 0.00 55.3 58.8
4/21/24 - 0100 59.4 43 37.0 1.1 NNW | 330 4.4 NW | 315 0.00 0.00 45.4 80.0
4/21/24 - 0000 59.0 49 39.8 1.1 E | 79 7.8 NNW | 341 0.00 0.00 45.4 80.0
4/20/24 - 2300 63.3 41 39.0 3.3 NNW | 339 9.5 NNE | 12 0.00 0.00 45.4 80.0
4/20/24 - 2200 55.9 69 45.9 1.4 N | 1 6.1 NNE | 15 0.00 0.00 45.4 80.0
4/20/24 - 2100 59.4 60 45.4 0.5 SSW | 207 3.1 SW | 228 0.00 0.00 45.4 80.0
4/20/24 - 2000 67.2 43 44.0 2.1 SE | 135 6.1 SSE | 163 0.00 0.00 45.4 80.0
4/20/24 - 1900 76.7 35 47.0 4.0 SSW | 205 9.1 SSW | 196 0.00 0.00 45.4 80.0
4/20/24 - 1800 78.0 33 46.7 6.5 WSW | 239 12.1 W | 261 0.00 0.00 45.4 80.0
4/20/24 - 1700 78.6 36 49.4 8.4 WSW | 243 13.8 SW | 226 0.00 0.00 45.4 80.0
4/20/24 - 1600 78.3 38 50.6 6.8 W | 272 15.2 W | 260 0.00 0.00 45.4 79.5
4/20/24 - 1500 78.6 35 48.3 6.5 NW | 322 12.5 NW | 310 0.00 0.00 45.4 79.5
4/20/24 - 1400 77.6 37 49.4 5.5 N | 351 11.1 N | 354 0.00 0.00 45.4 78.4
4/20/24 - 1300 73.5 50 53.5 3.9 ESE | 123 9.1 ENE | 72 0.00 0.00 45.4 76.0
4/20/24 - 1200 69.7 54 52.3 4.7 SSE | 150 9.5 SSE | 160 0.00 0.00 45.4 71.3
4/20/24 - 1100 66.3 58 51.0 4.0 SSE | 161 7.8 SE | 133 0.00 0.00 45.4 68.8
4/20/24 - 1000 64.1 61 50.4 2.7 S | 182 8.1 SSE | 150 0.00 0.00 45.4 65.2
4/20/24 - 0900 57.0 77 49.7 0.5 SSW | 200 3.4 SW | 217 0.00 0.00 45.4 62.0
4/20/24 - 0800 49.5 94 47.7 0.2 W | 278 2.4 SW | 216 0.00 0.00 45.4 52.0
4/20/24 - 0700 46.5 94 45.0 0.3 ESE | 114 3.4 SW | 216 0.00 0.00 45.4 51.0
4/20/24 - 0600 48.9 90 46.2 0.8 SE | 127 3.8 ENE | 73 0.00 0.00 47.3 51.0
4/20/24 - 0500 48.9 92 46.8 1.9 SE | 146 5.8 SE | 145 0.00 0.00 47.4 51.0
4/20/24 - 0400 49.0 92 46.8 0.5 WSW | 255 4.4 SW | 215 0.00 0.00 47.7 51.0
4/20/24 - 0300 48.8 93 46.9 0.6 SW | 236 3.8 SW | 230 0.00 0.00 48.1 51.0
4/20/24 - 0200 50.3 90 47.5 0.6 WSW | 257 3.4 SW | 227 0.00 0.00 48.7 51.0
4/20/24 - 0100 52.6 84 48.0 0.7 SSW | 205 4.1 SW | 231 0.00 0.00 47.4 80.2
4/20/24 - 0000 52.5 87 48.7 0.9 SW | 229 4.1 SSW | 208 0.00 0.00 47.4 80.2
4/19/24 - 2300 55.5 80 49.3 0.5 WSW | 258 3.1 SW | 234 0.00 0.00 47.4 80.2
4/19/24 - 2200 58.2 77 50.9 1.4 SSW | 199 5.1 S | 189 0.00 0.00 47.4 80.2
4/19/24 - 2100 61.5 70 51.6 1.4 WSW | 257 6.4 NW | 314 0.00 0.00 47.4 80.2
4/19/24 - 2000 66.3 58 51.3 4.2 NNW | 332 10.5 N | 355 0.00 0.00 47.4 80.2
4/19/24 - 1900 72.2 51 52.9 2.6 WSW | 258 6.8 WNW | 287 0.00 0.00 47.4 80.2
4/19/24 - 1800 75.9 49 55.3 3.5 WNW | 285 9.5 WSW | 243 0.00 0.00 47.4 80.2
4/19/24 - 1700 77.1 44 53.7 5.6 NNW | 333 11.1 NW | 326 0.00 0.00 47.4 80.2
4/19/24 - 1600 78.6 44 54.5 3.6 W | 262 14.5 N | 355 0.00 0.00 47.4 80.2
4/19/24 - 1500 76.0 49 55.2 4.7 N | 11 10.1 NNE | 16 0.00 0.00 47.4 77.2
4/19/24 - 1400 72.6 55 55.3 5.3 SE | 146 9.8 SSW | 208 0.00 0.00 47.4 73.9
4/19/24 - 1300 69.9 60 55.2 5.3 SSE | 165 10.8 S | 180 0.00 0.00 47.4 72.2
4/19/24 - 1200 67.4 63 54.4 6.0 SSE | 166 10.5 SSE | 148 0.00 0.00 47.4 68.9
4/19/24 - 1100 65.3 66 53.6 5.1 SSE | 166 9.1 SSW | 194 0.00 0.00 47.4 66.9
4/19/24 - 1000 63.6 68 53.0 3.9 SSE | 161 8.8 SE | 141 0.00 0.00 47.4 64.4
4/19/24 - 0900 61.2 71 51.7 1.7 S | 189 4.1 S | 176 0.00 0.00 47.4 64.3
4/19/24 - 0800 53.8 90 50.8 1.1 SW | 226 3.8 SW | 228 0.00 0.00 47.4 58.3
4/19/24 - 0700 48.0 96 46.9 0.2 SW | 236 2.7 NE | 54 0.00 0.00 47.4 55.2
4/19/24 - 0600 48.6 95 47.3 0.0 N | 1 1.7 N | 0 0.00 0.00 48.2 55.2
4/19/24 - 0500 50.3 92 47.9 0.1 NNE | 16 2.1 NNE | 32 0.00 0.00 49.4 55.2
4/19/24 - 0400 51.8 89 48.8 0.7 SE | 124 4.8 SE | 141 0.00 0.00 50.8 55.2
4/19/24 - 0300 53.0 88 49.4 0.0 SE | 144 2.1 SE | 137 0.00 0.00 52.1 55.2
4/19/24 - 0200 54.0 87 50.2 0.2 WSW | 237 2.7 WSW | 240 0.00 0.00 53.2 55.2
4/19/24 - 0100 56.0 83 50.8 0.3 SW | 224 2.7 WSW | 245 0.00 0.00 48.6 80.9
4/19/24 - 0000 58.7 76 51.2 0.6 NNW | 342 3.8 E | 86 0.00 0.00 48.6 80.9
4/18/24 - 2300 60.4 73 51.7 2.9 N | 356 11.8 N | 6 0.00 0.00 48.6 80.9
4/18/24 - 2200 60.9 77 53.6 0.5 SW | 216 3.1 SW | 230 0.00 0.00 48.6 80.9
4/18/24 - 2100 65.2 66 53.7 2.8 N | 10 8.1 N | 10 0.00 0.00 48.6 80.9
4/18/24 - 2000 68.7 59 53.6 2.5 NE | 35 6.1 N | 1 0.00 0.00 48.6 80.9
4/18/24 - 1900 76.6 41 50.8 3.2 SW | 223 8.4 SW | 230 0.00 0.00 48.6 80.9
4/18/24 - 1800 78.0 38 50.4 6.2 SW | 232 11.5 WSW | 250 0.00 0.00 48.6 80.9
4/18/24 - 1700 79.5 37 51.0 7.2 SSW | 212 11.5 S | 187 0.00 0.00 48.6 80.9
4/18/24 - 1600 80.1 35 50.0 6.2 SW | 227 11.8 SSW | 210 0.00 0.00 48.6 80.9
4/18/24 - 1500 79.8 31 46.2 3.3 S | 185 10.8 WSW | 246 0.00 0.00 48.6 80.9
4/18/24 - 1400 78.3 31 45.5 2.6 SSE | 150 7.8 SSE | 152 0.00 0.00 48.6 79.2
4/18/24 - 1300 76.7 35 47.1 3.8 SSW | 212 10.8 S | 190 0.00 0.00 48.6 78.0
4/18/24 - 1200 74.1 42 49.6 3.1 S | 181 7.8 SW | 219 0.00 0.00 48.6 76.0
4/18/24 - 1100 71.4 52 52.6 3.7 S | 181 6.8 SSE | 150 0.00 0.00 48.6 72.4
4/18/24 - 1000 68.4 60 53.8 3.1 SSW | 201 5.8 SSW | 195 0.00 0.00 48.6 70.8
4/18/24 - 0900 63.7 71 53.9 0.8 S | 178 4.1 SSW | 204 0.00 0.00 48.6 66.8
4/18/24 - 0800 54.2 90 51.2 0.5 NE | 44 3.8 ENE | 73 0.00 0.00 48.6 59.1
4/18/24 - 0700 49.4 96 48.2 0.1 NNE | 29 2.4 N | 351 0.00 0.00 48.6 55.4
4/18/24 - 0600 50.1 94 48.5 0.3 ENE | 65 3.8 ESE | 116 0.00 0.00 49.1 55.4
4/18/24 - 0500 52.6 91 50.1 1.4 NE | 42 4.4 NNE | 20 0.00 0.00 51.4 55.4
4/18/24 - 0400 53.2 92 51.0 0.8 NE | 51 4.1 ENE | 74 0.00 0.00 51.6 55.4
4/18/24 - 0300 52.8 93 50.9 1.2 ENE | 61 3.8 ENE | 75 0.00 0.00 51.6 55.4
4/18/24 - 0200 53.9 91 51.2 1.4 NE | 55 4.8 E | 79 0.00 0.00 52.9 55.4
4/18/24 - 0100 56.2 87 52.5 1.6 NE | 39 4.1 N | 8 0.00 0.00 47.5 79.4
4/18/24 - 0000 57.7 85 53.1 2.5 NE | 36 4.8 NE | 34 0.00 0.00 47.5 79.4
4/17/24 - 2300 59.4 81 53.5 3.4 NNE | 24 6.1 N | 354 0.00 0.00 47.5 79.4
4/17/24 - 2200 61.0 76 53.5 3.3 NNE | 30 6.4 N | 9 0.00 0.00 47.5 79.4
4/17/24 - 2100 62.6 75 54.7 2.3 NNE | 25 5.1 NNE | 26 0.00 0.00 47.5 79.4
4/17/24 - 2000 70.3 59 54.7 1.1 NNW | 341 3.4 NE | 37 0.00 0.00 47.5 79.4
4/17/24 - 1900 77.5 41 51.8 2.2 S | 174 5.1 S | 176 0.00 0.00 47.5 79.4
4/17/24 - 1800 77.8 39 50.9 3.5 SSE | 164 7.4 S | 178 0.00 0.00 47.5 79.4
4/17/24 - 1700 77.4 38 49.8 2.4 SSE | 156 5.1 S | 185 0.00 0.00 47.5 79.3
4/17/24 - 1600 77.2 39 50.4 3.4 SSE | 158 7.8 ESE | 114 0.00 0.00 47.5 78.0
4/17/24 - 1500 75.6 43 51.6 3.8 ESE | 105 8.4 ESE | 117 0.00 0.00 47.5 76.5
4/17/24 - 1400 74.0 48 53.1 4.8 ESE | 123 8.4 S | 171 0.00 0.00 47.5 74.9
4/17/24 - 1300 72.3 54 55.0 4.3 ESE | 120 9.1 ESE | 106 0.00 0.00 47.5 73.6
4/17/24 - 1200 71.8 54 54.2 1.6 SE | 142 5.1 S | 174 0.00 0.00 47.5 73.6
4/17/24 - 1100 69.4 60 54.9 2.1 SSW | 201 5.8 SSW | 205 0.00 0.00 47.5 71.8
4/17/24 - 1000 66.2 65 54.1 1.2 SSW | 198 4.1 SW | 214 0.00 0.00 47.5 68.2
4/17/24 - 0900 59.8 82 54.1 0.8 NE | 34 3.8 NNE | 21 0.00 0.00 47.5 63.8
4/17/24 - 0800 52.1 97 51.2 0.2 NE | 35 3.4 NE | 35 0.00 0.00 47.5 57.1
4/17/24 - 0700 48.8 97 47.9 0.2 NNE | 33 2.1 N | 349 0.00 0.00 47.5 56.4
4/17/24 - 0600 49.6 96 48.4 0.3 N | 0 2.4 NNE | 27 0.00 0.00 48.6 56.4
4/17/24 - 0500 51.1 94 49.5 0.4 NE | 47 2.7 S | 170 0.00 0.00 50.3 56.4
4/17/24 - 0400 51.8 93 49.8 0.7 ENE | 62 3.8 NE | 56 0.00 0.00 50.8 56.4
4/17/24 - 0300 54.1 86 50.2 1.6 NNE | 18 4.8 E | 82 0.00 0.00 52.0 56.4
4/17/24 - 0200 55.1 86 50.9 1.4 NE | 36 6.4 NNE | 20 0.00 0.00 54.0 56.4
4/17/24 - 0100 54.9 88 51.4 0.8 ENE | 73 3.1 E | 87 0.00 0.01 43.9 76.8
4/17/24 - 0000 55.7 86 51.5 1.2 NE | 52 3.8 NE | 39 0.00 0.01 43.9 76.8
4/16/24 - 2300 57.0 84 52.2 1.7 NE | 40 4.4 NE | 44 0.00 0.01 43.9 76.8
4/16/24 - 2200 58.8 82 53.3 1.3 NE | 42 3.4 NE | 55 0.00 0.01 43.9 76.8
4/16/24 - 2100 60.5 81 54.6 0.9 NE | 39 3.4 ENE | 63 0.00 0.01 43.9 76.8
Max 84.2 97 57.6 12.3 - 19.8 - 0.00 0.01 56.1 85.5
Avg 63.5 66 50.3 3.2 - 7.7 - 0.00 - - -
Min 46.5 31 37.0 0.0 - 0.0 - 0.00 0.00 43.9 51.0
Total - - - - - - - 0.00 - - -
Tip: Bookmark this page for easy future reference